Time;durP1;ratioP1;P1;durP2;ratioP2;P2;SDS_P1;SDS_P2;PMS_P1;PMS_P2;Temp;Humidity;BMP_temperature;BMP_pressure;BME280_temperature;BME280_humidity;BME280_pressure;Samples;Min_cycle;Max_cycle;Signal;HPM_P1;HPM_P2
2021/06/15 00:00:27;;;;;;;8.98;4.70;;;;;;;17.49;61.56;100467.19;1789906;78;20942;-78
2021/06/15 00:02:53;;;;;;;8.83;4.60;;;;;;;17.42;61.68;100461.00;1773557;79;20877;-78
2021/06/15 00:05:19;;;;;;;11.08;4.90;;;;;;;17.38;61.72;100469.06;1784461;79;20932;-79
2021/06/15 00:07:45;;;;;;;10.55;4.83;;;;;;;17.29;62.22;100471.55;1787515;77;21034;-78
2021/06/15 00:10:21;;;;;;;9.35;4.80;;;;;;;17.30;62.10;100465.20;1810155;78;21002;-78
2021/06/15 00:12:47;;;;;;;9.13;5.05;;;;;;;17.19;62.55;100466.03;1810044;78;21203;-78
2021/06/15 00:15:13;;;;;;;9.55;4.60;;;;;;;17.16;62.63;100469.08;1804233;78;20954;-78
2021/06/15 00:17:39;;;;;;;8.78;4.72;;;;;;;16.99;63.30;100466.36;1810730;78;21055;-78
2021/06/15 00:20:06;;;;;;;9.50;5.00;;;;;;;17.06;63.00;100463.27;1787316;78;21996;-78
2021/06/15 00:22:32;;;;;;;9.25;4.75;;;;;;;17.03;62.98;100460.97;1773546;79;21115;-78
2021/06/15 00:24:57;;;;;;;10.58;4.72;;;;;;;17.00;63.24;100460.02;1785499;79;21110;-76
2021/06/15 00:27:24;;;;;;;10.75;4.80;;;;;;;17.02;63.04;100457.98;1778255;78;21317;-77
2021/06/15 00:29:50;;;;;;;9.40;4.50;;;;;;;17.04;63.17;100446.59;1783098;79;21021;-77
2021/06/15 00:32:16;;;;;;;11.12;5.00;;;;;;;17.05;63.46;100449.59;1785068;79;21087;-77
2021/06/15 00:34:41;;;;;;;8.38;4.60;;;;;;;17.00;63.74;100453.35;1769204;78;21104;-78
2021/06/15 00:37:07;;;;;;;9.53;5.30;;;;;;;16.98;63.71;100450.03;1782526;79;20958;-78
2021/06/15 00:39:33;;;;;;;9.95;4.75;;;;;;;16.98;63.67;100452.70;1777355;79;21011;-78
2021/06/15 00:41:59;;;;;;;10.18;5.53;;;;;;;16.96;63.68;100449.41;1776303;78;20971;-79
2021/06/15 00:44:25;;;;;;;8.45;4.80;;;;;;;16.72;64.70;100446.55;1780563;79;22004;-79
2021/06/15 00:46:50;;;;;;;10.13;5.33;;;;;;;16.81;64.25;100446.27;1785220;79;21815;-79
2021/06/15 00:49:16;;;;;;;8.85;4.78;;;;;;;16.86;63.81;100445.73;1781075;79;21133;-79
2021/06/15 00:51:42;;;;;;;9.40;4.50;;;;;;;16.88;64.05;100441.53;1776564;79;21023;-77
2021/06/15 00:54:08;;;;;;;9.80;5.00;;;;;;;16.97;63.93;100441.73;1770690;79;21049;-78
2021/06/15 00:56:33;;;;;;;9.43;4.78;;;;;;;16.95;63.99;100446.41;1781616;79;21227;-78
2021/06/15 00:58:59;;;;;;;9.10;4.62;;;;;;;16.98;63.99;100443.36;1781933;79;20986;-78
2021/06/15 01:01:25;;;;;;;9.70;4.80;;;;;;;16.86;64.13;100441.20;1783166;79;21629;-78
2021/06/15 01:03:51;;;;;;;9.75;5.12;;;;;;;16.93;64.74;100441.27;1783223;79;20874;-79
2021/06/15 01:06:21;;;;;;;11.53;5.10;;;;;;;16.86;64.78;100443.06;1783438;78;20890;-78
2021/06/15 01:08:56;;;;;;;11.22;4.62;;;;;;;16.79;64.79;100444.27;1806966;78;21163;-78
2021/06/15 01:11:31;;;;;;;10.03;5.05;;;;;;;16.83;65.17;100436.22;1808936;78;21509;-77
2021/06/15 01:14:29;;;;;;;10.65;4.37;;;;;;;16.86;65.09;100437.20;1812484;78;21163;-77
2021/06/15 01:17:00;;;;;;;10.45;4.70;;;;;;;16.88;64.50;100434.35;1812937;77;21101;-77
2021/06/15 01:19:58;;;;;;;10.48;5.00;;;;;;;16.98;64.71;100427.35;1798419;78;21028;-80
2021/06/15 01:22:55;;;;;;;9.88;4.83;;;;;;;17.00;64.61;100432.01;1745433;80;21979;-78
2021/06/15 01:25:52;;;;;;;10.53;4.78;;;;;;;17.05;64.14;100433.58;1783438;79;21146;-79
2021/06/15 01:28:27;;;;;;;9.10;4.97;;;;;;;17.07;63.41;100432.88;1777826;79;21115;-80
2021/06/15 01:31:26;;;;;;;9.48;5.15;;;;;;;16.97;63.66;100432.39;1783563;80;20996;-78
2021/06/15 01:33:55;;;;;;;10.70;5.08;;;;;;;16.98;63.82;100437.53;1783146;78;21034;-77
2021/06/15 01:36:23;;;;;;;10.18;5.22;;;;;;;16.84;64.25;100431.22;1805956;78;21157;-78
2021/06/15 01:38:53;;;;;;;7.30;4.83;;;;;;;16.65;65.00;100423.83;1811151;77;21790;-78
2021/06/15 01:41:29;;;;;;;12.73;5.15;;;;;;;16.68;64.84;100423.45;1781873;79;21068;-78
2021/06/15 01:44:00;;;;;;;9.70;5.28;;;;;;;16.66;64.85;100421.48;1789555;78;21110;-79
2021/06/15 01:46:27;;;;;;;12.75;5.03;;;;;;;16.68;64.70;100422.11;1731882;80;21287;-78
2021/06/15 01:49:04;;;;;;;10.63;5.30;;;;;;;16.48;65.34;100421.41;1751082;80;21295;-78
2021/06/15 01:51:30;;;;;;;12.63;4.92;;;;;;;16.53;65.39;100417.34;1756967;80;21075;-77
2021/06/15 01:54:09;;;;;;;12.63;5.23;;;;;;;16.59;64.86;100421.92;1753605;80;21188;-77
2021/06/15 01:56:30;;;;;;;9.68;5.00;;;;;;;16.63;64.85;100427.20;1762079;80;21041;-79
2021/06/15 01:58:57;;;;;;;11.10;5.17;;;;;;;16.62;64.90;100429.53;1765747;80;20896;-78
2021/06/15 02:01:23;;;;;;;11.65;4.92;;;;;;;16.68;64.97;100428.78;1770321;80;21072;-79
2021/06/15 02:03:51;;;;;;;11.60;5.42;;;;;;;16.63;65.39;100433.34;1721850;80;20987;-78
2021/06/15 02:06:20;;;;;;;11.95;5.60;;;;;;;16.61;65.67;100439.39;1767080;80;21152;-78
2021/06/15 02:08:46;;;;;;;12.58;5.25;;;;;;;16.55;65.46;100440.66;1770607;80;20970;-78
2021/06/15 02:11:12;;;;;;;14.15;5.45;;;;;;;16.49;65.11;100444.37;1765173;80;21071;-78
2021/06/15 02:13:41;;;;;;;12.05;5.83;;;;;;;16.46;65.08;100442.59;1770261;80;20989;-78
2021/06/15 02:16:07;;;;;;;11.35;5.58;;;;;;;16.46;64.99;100443.41;1768686;79;21369;-79
2021/06/15 02:18:33;;;;;;;9.68;5.00;;;;;;;16.44;64.87;100446.78;1769920;80;20903;-78
2021/06/15 02:20:59;;;;;;;11.48;5.50;;;;;;;16.36;65.12;100446.91;1765170;80;21117;-79
2021/06/15 02:23:25;;;;;;;10.75;5.17;;;;;;;16.19;65.77;100446.77;1748122;80;21081;-79
2021/06/15 02:25:55;;;;;;;10.32;5.20;;;;;;;16.21;65.44;100448.77;1769307;80;21232;-78
2021/06/15 02:28:21;;;;;;;9.55;5.35;;;;;;;16.20;65.33;100445.77;1772140;79;21243;-78
2021/06/15 02:30:47;;;;;;;9.03;5.15;;;;;;;16.24;65.23;100443.87;1779650;79;20949;-78
2021/06/15 02:33:23;;;;;;;11.15;5.37;;;;;;;16.29;64.93;100435.33;1772756;80;20959;-78
2021/06/15 02:35:58;;;;;;;10.35;5.67;;;;;;;16.29;64.96;100433.48;1772769;80;21572;-79
2021/06/15 02:38:30;;;;;;;10.98;5.65;;;;;;;16.28;64.98;100428.33;1759349;80;21319;-77
2021/06/15 02:41:03;;;;;;;12.20;5.50;;;;;;;16.28;64.89;100432.33;1783513;78;21035;-81
2021/06/15 02:43:29;;;;;;;11.18;5.28;;;;;;;16.15;65.58;100431.16;1785871;79;21725;-81
2021/06/15 02:45:55;;;;;;;11.03;5.50;;;;;;;16.21;65.40;100432.26;1803568;78;21013;-80
2021/06/15 02:48:23;;;;;;;11.23;5.23;;;;;;;16.25;65.16;100442.88;1798655;77;21165;-80
2021/06/15 02:50:49;;;;;;;12.07;5.75;;;;;;;16.34;65.07;100450.23;1765592;80;21114;-78
2021/06/15 02:53:42;;;;;;;10.80;5.30;;;;;;;16.32;65.00;100446.95;1765152;80;20967;-79
2021/06/15 02:56:15;;;;;;;10.48;5.20;;;;;;;16.42;64.67;100440.83;1770866;80;21019;-79
2021/06/15 02:58:41;;;;;;;12.73;5.62;;;;;;;16.42;64.74;100438.16;1768804;80;21537;-78
2021/06/15 03:01:07;;;;;;;13.00;6.05;;;;;;;16.56;64.40;100446.29;1769248;80;21027;-78
2021/06/15 03:03:36;;;;;;;10.45;5.47;;;;;;;16.54;64.49;100447.81;1769282;80;21045;-78
2021/06/15 03:06:03;;;;;;;10.60;5.30;;;;;;;16.58;64.20;100446.92;1769376;80;21078;-78
2021/06/15 03:08:29;;;;;;;13.68;5.60;;;;;;;16.62;64.17;100456.20;1770814;80;22076;-78
2021/06/15 03:10:55;;;;;;;9.48;5.28;;;;;;;16.65;64.06;100450.49;1771589;80;20903;-78
2021/06/15 03:13:43;;;;;;;11.22;5.80;;;;;;;16.61;64.22;100455.88;1765480;80;21006;-77
2021/06/15 03:16:10;;;;;;;10.82;5.60;;;;;;;16.61;63.99;100462.54;1768966;80;21290;-78
2021/06/15 03:18:45;;;;;;;12.98;5.80;;;;;;;16.65;63.91;100455.83;1769809;79;21133;-79
2021/06/15 03:21:16;;;;;;;11.85;5.30;;;;;;;16.63;63.94;100461.34;1766705;80;21027;-78
2021/06/15 03:23:57;;;;;;;9.43;5.50;;;;;;;16.62;63.68;100453.53;1741294;80;21003;-78
2021/06/15 03:26:28;;;;;;;10.00;5.08;;;;;;;16.63;63.62;100460.53;1767759;80;20955;-80
2021/06/15 03:28:56;;;;;;;13.03;5.28;;;;;;;16.75;63.19;100464.36;1763041;80;21004;-80
2021/06/15 03:31:23;;;;;;;12.20;5.03;;;;;;;16.76;62.87;100468.66;1770070;80;21117;-79
2021/06/15 03:33:51;;;;;;;9.25;5.00;;;;;;;16.77;62.69;100464.17;1766604;80;21020;-79
2021/06/15 03:36:18;;;;;;;9.65;5.37;;;;;;;16.79;62.48;100465.61;1747243;80;21957;-79
2021/06/15 03:38:44;;;;;;;13.25;5.05;;;;;;;16.81;62.57;100462.27;1794162;78;21111;-77
2021/06/15 03:41:10;;;;;;;8.60;4.72;;;;;;;16.90;62.35;100465.66;1805424;78;20942;-77
2021/06/15 03:43:36;;;;;;;11.97;5.80;;;;;;;16.98;62.00;100462.03;1814015;78;21166;-77
2021/06/15 03:46:09;;;;;;;9.45;4.90;;;;;;;16.98;62.02;100460.70;1815721;78;21396;-77
2021/06/15 03:48:41;;;;;;;12.18;4.78;;;;;;;16.94;61.97;100466.12;1797014;78;21032;-80
2021/06/15 03:51:09;;;;;;;10.30;4.92;;;;;;;16.93;62.21;100468.45;1778004;78;21030;-78
2021/06/15 03:53:35;;;;;;;10.70;4.67;;;;;;;16.99;61.75;100465.03;1769028;80;21161;-77
2021/06/15 03:56:02;;;;;;;11.80;5.00;;;;;;;17.10;61.59;100460.51;1766999;80;22178;-76
2021/06/15 03:58:28;;;;;;;9.98;5.22;;;;;;;17.13;61.31;100464.13;1744272;80;21102;-77
2021/06/15 04:00:54;;;;;;;8.20;4.55;;;;;;;17.20;61.10;100461.54;1768505;80;20901;-78
2021/06/15 04:03:20;;;;;;;8.43;4.83;;;;;;;17.26;60.70;100459.92;1765534;80;21420;-79
2021/06/15 04:05:47;;;;;;;11.05;4.80;;;;;;;17.23;61.05;100467.31;1772209;80;21244;-80
2021/06/15 04:08:15;;;;;;;15.03;5.10;;;;;;;17.12;61.38;100462.50;1716446;80;21118;-77
2021/06/15 04:10:45;;;;;;;12.37;5.10;;;;;;;17.15;61.22;100464.78;1767819;79;21035;-79
2021/06/15 04:13:11;;;;;;;10.65;5.05;;;;;;;17.11;61.43;100463.50;1747528;80;21090;-78
2021/06/15 04:15:37;;;;;;;11.78;5.08;;;;;;;17.11;61.48;100465.36;1763065;80;21240;-79
2021/06/15 04:18:04;;;;;;;10.05;5.05;;;;;;;17.15;61.78;100466.12;1775102;80;21074;-79
2021/06/15 04:20:36;;;;;;;10.50;5.45;;;;;;;17.25;61.89;100456.95;1766307;80;26983;-80
2021/06/15 04:23:05;;;;;;;9.75;5.28;;;;;;;17.17;62.45;100465.41;1750034;80;21087;-78
2021/06/15 04:25:33;;;;;;;11.03;5.53;;;;;;;17.25;62.24;100472.45;1783912;78;21292;-79
2021/06/15 04:28:00;;;;;;;11.30;5.53;;;;;;;17.32;62.27;100475.17;1784371;80;21040;-78
2021/06/15 04:30:27;;;;;;;14.05;5.60;;;;;;;17.38;62.43;100471.73;1778283;80;21198;-78
2021/06/15 04:32:56;;;;;;;11.22;5.90;;;;;;;17.41;62.44;100472.69;1782542;80;21103;-79
2021/06/15 04:35:28;;;;;;;10.00;5.42;;;;;;;17.54;62.14;100474.13;1783919;80;21013;-77
2021/06/15 04:37:57;;;;;;;12.25;6.08;;;;;;;17.45;62.78;100467.77;1783458;80;20997;-76
2021/06/15 04:40:34;;;;;;;12.78;6.15;;;;;;;17.48;62.74;100466.89;1783698;80;21036;-77
2021/06/15 04:43:11;;;;;;;10.95;5.45;;;;;;;17.58;62.55;100464.69;1779756;79;21111;-80
2021/06/15 04:45:44;;;;;;;13.05;5.83;;;;;;;17.64;62.65;100463.62;1773053;80;21075;-78
2021/06/15 04:48:13;;;;;;;13.35;6.10;;;;;;;17.69;62.36;100470.53;1804478;78;21105;-81
2021/06/15 04:50:39;;;;;;;13.13;6.15;;;;;;;17.72;62.99;100478.16;1813809;78;21058;-77
2021/06/15 04:53:06;;;;;;;16.07;6.05;;;;;;;17.74;62.95;100474.77;1810481;78;20979;-79
2021/06/15 04:55:35;;;;;;;12.20;5.95;;;;;;;17.91;62.31;100469.48;1808589;78;21265;-85
2021/06/15 04:58:02;;;;;;;12.98;6.17;;;;;;;17.85;62.90;100470.23;1810060;78;21763;-80
2021/06/15 05:00:27;;;;;;;11.30;5.75;;;;;;;18.02;62.48;100472.61;1817310;78;21012;-78
2021/06/15 05:02:53;;;;;;;12.55;6.58;;;;;;;18.02;62.09;100477.46;1806952;78;21614;-85
2021/06/15 05:05:20;;;;;;;14.73;6.87;;;;;;;18.04;61.54;100481.27;1811352;78;20868;-79
2021/06/15 05:08:01;;;;;;;19.05;7.67;;;;;;;18.07;61.12;100490.20;1769337;79;21230;-82
2021/06/15 05:10:28;;;;;;;13.10;6.35;;;;;;;18.20;60.62;100491.62;1772953;80;21289;-80
2021/06/15 05:12:54;;;;;;;18.40;6.80;;;;;;;18.10;60.99;100487.98;1774282;80;21055;-81
2021/06/15 05:15:22;;;;;;;15.13;6.55;;;;;;;18.10;61.10;100489.81;1763451;79;21256;-78
2021/06/15 05:17:49;;;;;;;15.18;7.20;;;;;;;18.19;60.65;100490.48;1770617;79;21078;-81
2021/06/15 05:20:16;;;;;;;14.55;6.85;;;;;;;18.26;61.07;100485.48;1808788;77;21860;-80
2021/06/15 05:23:09;;;;;;;13.67;6.77;;;;;;;18.43;61.02;100485.16;1810821;78;20977;-82
2021/06/15 05:25:35;;;;;;;18.92;6.97;;;;;;;18.46;60.71;100491.44;1760297;79;21087;-80
2021/06/15 05:28:01;;;;;;;13.62;6.62;;;;;;;18.56;60.51;100482.52;1789452;79;20950;-81
2021/06/15 05:30:28;;;;;;;12.80;6.40;;;;;;;18.63;59.53;100479.88;1781872;79;20887;-82
2021/06/15 05:32:54;;;;;;;17.05;7.20;;;;;;;18.72;60.16;100476.00;1769513;79;21634;-81
2021/06/15 05:35:20;;;;;;;14.33;6.20;;;;;;;18.86;59.43;100484.06;1776156;79;21053;-80
2021/06/15 05:37:46;;;;;;;14.45;6.42;;;;;;;18.84;59.90;100485.58;1785689;80;20902;-82
2021/06/15 05:40:13;;;;;;;14.00;7.08;;;;;;;18.78;60.14;100484.55;1725315;80;20887;-86
2021/06/15 05:42:39;;;;;;;14.83;6.72;;;;;;;18.94;59.79;100495.42;1785322;80;21104;-78
2021/06/15 05:45:07;;;;;;;12.93;6.60;;;;;;;18.99;59.62;100488.94;1783458;78;21105;-82
2021/06/15 05:47:34;;;;;;;13.48;7.40;;;;;;;18.92;58.75;100493.44;1747114;80;21315;-80
2021/06/15 05:49:59;;;;;;;17.13;7.57;;;;;;;19.04;58.72;100488.33;1788783;78;21018;-79
2021/06/15 05:52:25;;;;;;;13.80;6.85;;;;;;;19.14;58.21;100491.94;1806308;78;20863;-81
2021/06/15 05:54:51;;;;;;;13.85;7.17;;;;;;;19.17;58.02;100486.17;1761617;80;20884;-81
2021/06/15 05:57:18;;;;;;;15.20;7.22;;;;;;;19.17;58.60;100495.54;1790444;78;21111;-81
2021/06/15 05:59:43;;;;;;;13.43;6.78;;;;;;;19.30;57.70;100502.26;1808290;78;21023;-81
2021/06/15 06:02:09;;;;;;;15.93;7.35;;;;;;;19.51;57.40;100503.08;1805057;78;20851;-82
2021/06/15 06:04:48;;;;;;;14.28;6.78;;;;;;;19.80;56.55;100499.17;1796780;78;20950;-81
2021/06/15 06:09:48;;;;;;;13.50;7.00;;;;;;;19.90;55.58;100503.60;1752865;80;21294;-81
2021/06/15 06:12:14;;;;;;;14.83;6.78;;;;;;;19.97;55.65;100507.59;1780076;79;20989;-82
2021/06/15 06:14:39;;;;;;;18.62;6.85;;;;;;;20.07;55.33;100502.64;1789012;79;21364;-82
2021/06/15 06:17:07;;;;;;;12.90;7.03;;;;;;;20.04;55.21;100485.63;1774403;79;20943;-81
2021/06/15 06:19:33;;;;;;;15.55;6.83;;;;;;;20.04;55.21;100485.63;1773134;80;21098;-78
2021/06/15 06:21:59;;;;;;;13.43;6.85;;;;;;;20.29;54.68;100496.16;1766773;80;21145;-80
2021/06/15 06:24:25;;;;;;;17.25;7.47;;;;;;;20.26;55.01;100504.14;1771594;80;20942;-84
2021/06/15 06:26:51;;;;;;;16.05;6.83;;;;;;;20.30;54.91;100495.95;1769903;80;21258;-80
2021/06/15 06:29:18;;;;;;;16.03;7.20;;;;;;;20.44;54.41;100502.91;1768797;80;21016;-79
2021/06/15 06:31:44;;;;;;;15.75;7.12;;;;;;;20.58;54.68;100504.20;1769160;80;21121;-77
2021/06/15 06:34:09;;;;;;;15.72;6.00;;;;;;;20.71;54.00;100499.31;1776935;80;21013;-78
2021/06/15 06:36:35;;;;;;;17.80;7.08;;;;;;;20.82;54.19;100511.23;1768983;80;20872;-79
2021/06/15 06:39:05;;;;;;;22.80;7.55;;;;;;;20.90;53.79;100513.68;1768800;80;20904;-76
2021/06/15 06:41:31;;;;;;;14.13;6.97;;;;;;;21.00;53.26;100509.98;1763067;80;21529;-76
2021/06/15 06:43:57;;;;;;;14.63;7.05;;;;;;;21.05;53.09;100511.52;1773887;78;21708;-76
2021/06/15 06:46:23;;;;;;;15.70;6.40;;;;;;;21.03;53.08;100512.23;1772409;79;21152;-77
2021/06/15 06:48:49;;;;;;;17.15;7.05;;;;;;;21.24;52.54;100508.89;1805985;78;20993;-75
2021/06/15 06:51:14;;;;;;;17.60;7.33;;;;;;;21.28;52.16;100507.42;1802943;78;20859;-76
2021/06/15 06:53:40;;;;;;;14.75;6.92;;;;;;;21.20;52.31;100505.02;1786968;78;21102;-77
2021/06/15 06:56:06;;;;;;;13.88;6.65;;;;;;;21.28;52.71;100502.05;1781098;78;21092;-77
2021/06/15 06:58:33;;;;;;;13.48;6.58;;;;;;;21.28;52.25;100504.73;1789491;79;21656;-76
2021/06/15 07:00:58;;;;;;;14.83;6.70;;;;;;;21.40;51.47;100495.46;1782881;79;21013;-76
2021/06/15 07:03:24;;;;;;;15.35;6.85;;;;;;;21.38;51.48;100491.65;1792928;79;20953;-77
2021/06/15 07:05:50;;;;;;;18.92;6.62;;;;;;;21.42;51.58;100494.18;1787628;79;21348;-80
2021/06/15 07:08:16;;;;;;;14.78;6.50;;;;;;;21.54;51.02;100499.70;1788128;79;21169;-78
2021/06/15 07:10:42;;;;;;;15.38;6.12;;;;;;;21.48;51.03;100493.83;1786860;79;21147;-81
2021/06/15 07:13:08;;;;;;;15.10;6.83;;;;;;;21.47;50.58;100496.21;1786835;79;20970;-78
2021/06/15 07:15:33;;;;;;;14.50;6.15;;;;;;;21.47;51.13;100495.70;1786043;79;20977;-77
2021/06/15 07:17:59;;;;;;;13.45;6.45;;;;;;;21.54;50.40;100474.70;1795420;78;20864;-79
2021/06/15 07:20:25;;;;;;;15.90;6.60;;;;;;;21.54;50.40;100474.70;1811819;78;20971;-79
2021/06/15 07:22:51;;;;;;;14.05;6.03;;;;;;;21.71;50.41;100495.13;1805962;78;21112;-79
2021/06/15 07:25:16;;;;;;;13.03;5.70;;;;;;;21.91;50.28;100502.46;1813779;78;21349;-82
2021/06/15 07:27:42;;;;;;;12.28;5.83;;;;;;;22.06;49.47;100502.08;1791009;77;20970;-79
2021/06/15 07:30:08;;;;;;;13.75;5.85;;;;;;;22.35;48.26;100499.73;1772442;80;20889;-80
2021/06/15 07:32:34;;;;;;;12.87;6.30;;;;;;;22.45;47.49;100501.37;1771131;80;21138;-80
2021/06/15 07:35:00;;;;;;;12.23;5.83;;;;;;;22.53;46.62;100495.67;1766392;79;21061;-80
2021/06/15 07:37:26;;;;;;;14.80;5.90;;;;;;;22.41;46.81;100505.55;1749529;81;21091;-81
2021/06/15 07:39:51;;;;;;;15.48;6.08;;;;;;;22.42;46.53;100500.48;1751461;81;20978;-79
2021/06/15 07:42:17;;;;;;;11.90;5.22;;;;;;;22.59;46.03;100501.49;1746348;81;20962;-80
2021/06/15 07:44:43;;;;;;;10.70;5.50;;;;;;;22.73;45.53;100499.95;1751575;80;20882;-80
2021/06/15 07:47:09;;;;;;;12.45;6.00;;;;;;;22.71;44.64;100499.37;1758043;79;21153;-80
2021/06/15 07:49:35;;;;;;;15.75;6.45;;;;;;;22.47;43.81;100503.30;1783425;78;21045;-79
2021/06/15 07:52:01;;;;;;;14.38;5.65;;;;;;;22.59;44.58;100489.38;1788920;79;20985;-81
2021/06/15 07:54:27;;;;;;;18.12;6.42;;;;;;;22.59;44.58;100489.38;1788549;79;28905;-81
2021/06/15 07:56:53;;;;;;;12.90;5.65;;;;;;;22.55;43.63;100495.45;1786288;79;26656;-81
2021/06/15 07:59:19;;;;;;;10.93;5.50;;;;;;;22.48;44.51;100494.70;1780139;79;20993;-80
2021/06/15 08:01:44;;;;;;;12.80;5.92;;;;;;;22.61;45.21;100497.73;1782275;79;20929;-80
2021/06/15 08:04:14;;;;;;;12.63;5.55;;;;;;;22.67;45.56;100489.59;1784028;79;20945;-82
2021/06/15 08:06:38;;;;;;;10.90;5.37;;;;;;;22.73;45.70;100482.45;1781879;78;21138;-81
2021/06/15 08:09:04;;;;;;;11.63;5.42;;;;;;;22.75;44.53;100497.87;1765747;80;21041;-79
2021/06/15 08:11:30;;;;;;;15.60;7.22;;;;;;;22.67;44.68;100492.78;1766960;81;21078;-78
2021/06/15 08:13:56;;;;;;;12.63;5.92;;;;;;;22.61;45.51;100489.66;1764927;80;20839;-79
2021/06/15 08:16:21;;;;;;;13.10;5.70;;;;;;;22.72;44.71;100492.95;1768651;79;21074;-80
2021/06/15 08:18:47;;;;;;;11.93;5.28;;;;;;;22.74;44.45;100491.64;1804783;78;20863;-80
2021/06/15 08:21:13;;;;;;;12.53;5.67;;;;;;;22.72;43.96;100495.64;1810397;78;20880;-81
2021/06/15 08:23:40;;;;;;;12.85;5.25;;;;;;;22.69;44.23;100494.75;1810910;78;21320;-80
2021/06/15 08:26:05;;;;;;;11.35;5.50;;;;;;;22.79;44.13;100486.92;1806146;78;20987;-81
2021/06/15 08:28:31;;;;;;;11.40;4.70;;;;;;;22.90;43.68;100487.50;1806826;77;21434;-79
2021/06/15 08:30:57;;;;;;;10.75;5.08;;;;;;;23.02;42.11;100478.63;1807739;78;20887;-80
2021/06/15 08:33:24;;;;;;;12.58;5.10;;;;;;;23.13;42.51;100476.51;1803819;78;21081;-80
2021/06/15 08:35:50;;;;;;;10.48;5.00;;;;;;;22.94;41.57;100477.90;1803135;78;21951;-80
2021/06/15 08:38:18;;;;;;;8.58;4.42;;;;;;;23.04;41.43;100472.48;1815413;78;20947;-78
2021/06/15 08:40:48;;;;;;;12.03;4.60;;;;;;;23.06;41.12;100471.73;1808796;78;21099;-78
2021/06/15 08:43:14;;;;;;;7.60;4.20;;;;;;;23.10;41.54;100471.58;1807707;78;21034;-79
2021/06/15 08:45:41;;;;;;;12.23;4.50;;;;;;;23.15;41.13;100473.08;1802575;78;20855;-77
2021/06/15 08:48:07;;;;;;;;;;;;;;;23.18;40.08;100486.09;1815993;78;21785;-79
2021/06/15 08:50:33;;;;;;;8.40;4.30;;;;;;;23.18;40.96;100486.59;1795253;78;20276;-80
2021/06/15 08:52:58;;;;;;;11.30;5.03;;;;;;;23.29;40.24;100479.89;1808388;78;20962;-85
2021/06/15 08:55:29;;;;;;;9.28;4.40;;;;;;;23.40;39.90;100474.22;1804402;78;20860;-87
2021/06/15 08:58:18;;;;;;;7.92;4.58;;;;;;;23.56;40.20;100474.58;1802531;78;21622;-88
2021/06/15 09:00:44;;;;;;;10.68;4.97;;;;;;;23.59;39.78;100473.57;1771538;79;21127;-89
2021/06/15 09:03:14;;;;;;;12.07;5.17;;;;;;;23.66;40.68;100474.28;1789116;79;21079;-84
2021/06/15 09:05:41;;;;;;;10.15;5.12;;;;;;;23.53;41.09;100473.16;1784104;79;21635;-85
2021/06/15 09:08:14;;;;;;;9.80;4.92;;;;;;;23.69;40.75;100469.47;1788796;79;21069;-87
2021/06/15 09:10:45;;;;;;;9.90;4.75;;;;;;;23.80;39.93;100476.72;1785901;79;21025;-88
2021/06/15 09:13:38;;;;;;;10.60;4.67;;;;;;;23.88;39.94;100465.62;1781331;79;21217;-88
2021/06/15 09:16:26;;;;;;;12.58;5.40;;;;;;;23.81;39.99;100466.23;1787751;79;21880;-88
2021/06/15 09:18:55;;;;;;;9.80;4.87;;;;;;;23.86;40.03;100473.11;1783012;79;21096;-87
2021/06/15 09:21:33;;;;;;;10.82;4.97;;;;;;;23.98;40.07;100465.01;1786605;79;21032;-87
2021/06/15 09:24:09;;;;;;;10.88;5.12;;;;;;;23.97;40.45;100464.20;1768002;79;21134;-84
2021/06/15 09:27:02;;;;;;;12.40;5.20;;;;;;;23.98;40.69;100475.27;1770383;80;21305;-84
2021/06/15 09:29:42;;;;;;;11.30;5.30;;;;;;;24.11;40.90;100477.41;1769379;79;21023;-85
2021/06/15 09:32:12;;;;;;;8.10;4.67;;;;;;;23.75;41.01;100472.57;1791185;79;21226;-86
2021/06/15 09:35:14;;;;;;;8.55;4.53;;;;;;;24.07;41.19;100476.27;1793897;78;21047;-86
2021/06/15 09:37:46;;;;;;;12.90;5.42;;;;;;;24.19;40.95;100468.94;1806612;78;21014;-87
2021/06/15 09:40:31;;;;;;;12.03;5.00;;;;;;;23.91;40.77;100475.94;1812405;78;21053;-87
2021/06/15 09:43:10;;;;;;;12.80;5.28;;;;;;;24.03;40.67;100473.20;1816761;78;21178;-86
2021/06/15 09:45:42;;;;;;;11.53;5.17;;;;;;;24.21;40.35;100462.79;1816931;78;20974;-87
2021/06/15 09:48:38;;;;;;;11.18;5.10;;;;;;;24.01;40.47;100462.65;1753925;80;20980;-87
2021/06/15 09:51:16;;;;;;;11.10;5.40;;;;;;;24.00;40.36;100471.82;1756421;81;21040;-87
2021/06/15 09:53:44;;;;;;;11.53;5.30;;;;;;;23.73;40.79;100474.69;1785572;79;20978;-86
2021/06/15 09:56:13;;;;;;;10.80;5.40;;;;;;;23.87;40.88;100469.91;1776851;79;21562;-86
2021/06/15 09:58:55;;;;;;;9.48;4.87;;;;;;;23.83;40.32;100462.77;1786811;79;21840;-86
2021/06/15 10:01:40;;;;;;;11.48;4.85;;;;;;;23.97;40.12;100466.06;1784195;79;21503;-86
2021/06/15 10:04:21;;;;;;;10.03;4.95;;;;;;;24.07;39.84;100460.89;1804860;78;20994;-87
2021/06/15 10:06:49;;;;;;;10.75;5.22;;;;;;;23.95;39.45;100462.25;1807362;78;20994;-87
2021/06/15 10:09:32;;;;;;;14.65;6.67;;;;;;;24.15;38.82;100459.16;1777614;78;38980;-87
2021/06/15 10:12:00;;;;;;;8.18;4.62;;;;;;;24.18;38.93;100456.52;1815138;78;21015;-86
2021/06/15 10:14:27;;;;;;;9.45;4.53;;;;;;;24.47;38.47;100449.77;1808307;78;20991;-85
2021/06/15 10:16:54;;;;;;;8.03;4.12;;;;;;;24.58;38.34;100453.01;1809294;78;21098;-86
2021/06/15 10:19:20;;;;;;;12.07;5.05;;;;;;;24.46;38.08;100458.95;1792396;78;21906;-84
2021/06/15 10:21:47;;;;;;;10.05;4.97;;;;;;;24.36;37.72;100450.95;1808873;78;21559;-82
2021/06/15 10:24:14;;;;;;;9.70;4.62;;;;;;;24.64;37.78;100460.14;1765705;80;21010;-83
2021/06/15 10:26:40;;;;;;;10.40;4.55;;;;;;;24.58;38.02;100442.20;1773580;79;20947;-87
2021/06/15 10:29:10;;;;;;;12.55;4.92;;;;;;;24.26;38.54;100446.69;1775177;79;20924;-83
2021/06/15 10:31:36;;;;;;;12.30;5.00;;;;;;;24.16;38.91;100436.52;1774037;80;22000;-83
2021/06/15 10:34:02;;;;;;;9.80;4.58;;;;;;;24.27;38.86;100441.59;1771924;79;27477;-84
2021/06/15 10:36:43;;;;;;;10.43;4.92;;;;;;;24.52;38.68;100433.15;1771976;80;21038;-85
2021/06/15 10:39:18;;;;;;;9.98;4.97;;;;;;;24.69;38.45;100422.41;1765345;80;21064;-82
2021/06/15 10:41:44;;;;;;;12.10;5.40;;;;;;;24.76;39.03;100423.60;1742738;80;21765;-78
2021/06/15 10:44:10;;;;;;;9.38;4.50;;;;;;;24.42;39.25;100418.10;1768874;80;20984;-83
2021/06/15 10:46:38;;;;;;;14.50;5.40;;;;;;;24.42;39.26;100415.94;1766197;80;20999;-83
2021/06/15 10:49:07;;;;;;;12.95;5.37;;;;;;;24.50;39.24;100416.39;1772729;80;21079;-85
2021/06/15 10:51:43;;;;;;;7.85;4.50;;;;;;;24.50;39.05;100419.08;1770090;80;21446;-86
2021/06/15 10:54:38;;;;;;;10.65;4.78;;;;;;;24.76;38.93;100424.95;1761671;78;20999;-84
2021/06/15 10:57:28;;;;;;;12.03;5.33;;;;;;;24.76;39.10;100422.25;1809692;78;20990;-80
2021/06/15 11:00:13;;;;;;;11.93;6.00;;;;;;;24.79;39.23;100414.20;1793324;78;21024;-81
2021/06/15 11:02:40;;;;;;;11.30;6.28;;;;;;;24.85;39.55;100415.92;1782959;80;21303;-83
2021/06/15 11:05:38;;;;;;;12.65;5.30;;;;;;;25.06;38.94;100408.44;1784704;79;21029;-83
2021/06/15 11:08:24;;;;;;;10.60;5.20;;;;;;;25.06;38.41;100410.30;1784029;79;21171;-83
2021/06/15 11:10:59;;;;;;;8.73;5.12;;;;;;;24.98;38.37;100408.83;1784439;80;21145;-82
2021/06/15 11:13:54;;;;;;;9.43;5.15;;;;;;;24.96;38.31;100400.16;1780370;80;20961;-85
2021/06/15 11:16:45;;;;;;;11.28;5.30;;;;;;;25.19;38.71;100395.66;1778232;78;21028;-89
2021/06/15 11:19:20;;;;;;;14.68;5.50;;;;;;;25.18;39.19;100401.58;1778987;79;20982;-84
2021/06/15 11:22:08;;;;;;;12.60;4.70;;;;;;;25.01;37.97;100402.94;1786034;80;20997;-82
2021/06/15 11:24:48;;;;;;;11.00;4.95;;;;;;;24.95;38.35;100401.22;1785630;80;22026;-81
2021/06/15 11:27:24;;;;;;;9.75;4.78;;;;;;;24.91;37.87;100397.39;1781785;79;20965;-85
2021/06/15 11:29:51;;;;;;;9.55;4.67;;;;;;;24.98;37.99;100393.16;1784629;80;21835;-83
2021/06/15 11:32:24;;;;;;;;;;;;;;;25.03;37.71;100390.02;1788805;79;21116;-80
2021/06/15 11:34:59;;;;;;;9.48;4.50;;;;;;;25.09;37.29;100384.98;1787599;78;20215;-84